createdAt,value
2019-04-27T00:00:14.778Z,101231.28
2019-04-27T00:02:47.334Z,101229.15
2019-04-27T00:05:32.052Z,101237.30
2019-04-27T00:07:59.345Z,101234.72
2019-04-27T00:10:29.104Z,101229.11
2019-04-27T00:13:02.210Z,101225.00
2019-04-27T00:15:34.399Z,101218.89
2019-04-27T00:18:15.635Z,101220.66
2019-04-27T00:20:54.531Z,101218.27
2019-04-27T00:23:25.478Z,101216.06
2019-04-27T00:25:55.019Z,101212.09
2019-04-27T00:28:24.564Z,101217.42
2019-04-27T00:30:54.006Z,101210.45
2019-04-27T00:33:23.905Z,101205.88
2019-04-27T00:36:00.825Z,101206.69
2019-04-27T00:38:34.627Z,101201.45
2019-04-27T00:41:05.563Z,101198.42
2019-04-27T00:43:34.939Z,101191.28
2019-04-27T00:46:04.749Z,101197.03
2019-04-27T00:48:34.373Z,101196.03
2019-04-27T00:51:04.247Z,101196.66
2019-04-27T00:53:33.880Z,101191.90
2019-04-27T00:56:04.887Z,101202.02
2019-04-27T00:58:43.063Z,101200.26
2019-04-27T01:01:20.309Z,101193.50
2019-04-27T01:04:00.235Z,101186.77
2019-04-27T01:06:29.509Z,101193.30
2019-04-27T01:08:59.023Z,101194.93
2019-04-27T01:11:28.291Z,101187.18
2019-04-27T01:13:58.030Z,101182.63
2019-04-27T01:16:27.305Z,101179.52
2019-04-27T01:18:56.583Z,101185.09
2019-04-27T01:21:26.141Z,101180.13
2019-04-27T01:23:55.512Z,101181.89
2019-04-27T01:26:29.172Z,101180.26
2019-04-27T01:29:00.284Z,101172.69
2019-04-27T01:31:30.799Z,101165.14
2019-04-27T01:34:00.164Z,101156.37
2019-04-27T01:36:29.788Z,101160.95
2019-04-27T01:38:59.587Z,101155.56
2019-04-27T01:41:30.553Z,101162.69
2019-04-27T01:43:59.873Z,101153.91
2019-04-27T01:46:29.633Z,101150.92
2019-04-27T01:48:59.195Z,101157.69
2019-04-27T01:51:29.460Z,101151.70
2019-04-27T01:53:59.887Z,101147.52
2019-04-27T01:56:29.498Z,101147.36
2019-04-27T01:58:59.585Z,101136.67
2019-04-27T02:01:30.666Z,101139.61
2019-04-27T02:04:01.614Z,101135.84
2019-04-27T02:06:30.884Z,101124.95
2019-04-27T02:09:00.176Z,101120.72
2019-04-27T02:11:29.456Z,101121.75
2019-04-27T02:13:59.420Z,101123.31
2019-04-27T02:16:30.589Z,101125.77
2019-04-27T02:19:01.249Z,101112.78
2019-04-27T02:21:30.522Z,101117.59
2019-04-27T02:23:59.994Z,101120.97
2019-04-27T02:26:29.975Z,101114.42
2019-04-27T02:29:03.986Z,101110.41
2019-04-27T02:31:36.575Z,101107.83
2019-04-27T02:34:09.564Z,101102.86
2019-04-27T02:36:39.145Z,101104.26
2019-04-27T02:39:09.575Z,101095.66
2019-04-27T02:41:40.019Z,101096.69
2019-04-27T02:44:14.055Z,101084.76
2019-04-27T02:46:43.472Z,101080.80
2019-04-27T02:49:12.785Z,101074.48
2019-04-27T02:52:00.359Z,101074.81
2019-04-27T02:54:30.013Z,101070.47
2019-04-27T02:56:59.598Z,101071.09
2019-04-27T02:59:30.503Z,101061.30
2019-04-27T03:02:20.198Z,101057.58
2019-04-27T03:04:50.067Z,101052.94
2019-04-27T03:07:20.183Z,101051.44
2019-04-27T03:09:51.045Z,101053.13
2019-04-27T03:12:22.338Z,101039.47
2019-04-27T03:14:59.414Z,101047.22
2019-04-27T03:17:39.792Z,101041.59
2019-04-27T03:20:30.119Z,101041.02
2019-04-27T03:23:01.425Z,101036.69
2019-04-27T03:25:40.306Z,101036.69
2019-04-27T03:28:12.487Z,101026.52
2019-04-27T03:30:43.456Z,101024.72
2019-04-27T03:33:12.941Z,101026.17
2019-04-27T03:35:43.662Z,101013.02
2019-04-27T03:38:13.418Z,101011.11
2019-04-27T03:40:42.766Z,101008.89
2019-04-27T03:43:21.129Z,101008.27
2019-04-27T03:45:52.522Z,101005.48
2019-04-27T03:48:21.464Z,100998.31
2019-04-27T03:50:55.136Z,100997.95
2019-04-27T03:53:26.348Z,100988.57
2019-04-27T03:55:59.827Z,100981.03
2019-04-27T03:58:39.630Z,100993.77
2019-04-27T04:01:10.675Z,100990.12
2019-04-27T04:03:40.117Z,100992.33
2019-04-27T04:06:10.796Z,100988.77
2019-04-27T04:08:40.387Z,100988.16
2019-04-27T04:11:11.296Z,100992.63
2019-04-27T04:13:42.243Z,100987.89
2019-04-27T04:16:17.008Z,100983.77
2019-04-27T04:18:57.510Z,100979.89
2019-04-27T04:21:26.937Z,100981.58
2019-04-27T04:23:56.242Z,100978.26
2019-04-27T04:26:25.515Z,100973.72
2019-04-27T04:28:54.807Z,100971.58
2019-04-27T04:31:24.089Z,100971.18
2019-04-27T04:33:53.369Z,100975.77
2019-04-27T04:36:22.658Z,100973.19
2019-04-27T04:38:52.092Z,100965.24
2019-04-27T04:41:35.115Z,100970.81
2019-04-27T04:44:09.763Z,100967.66
2019-04-27T04:47:00.105Z,100969.42
2019-04-27T04:49:29.612Z,100965.48
2019-04-27T04:51:59.652Z,100964.13
2019-04-27T04:54:30.050Z,100963.99
2019-04-27T04:56:59.650Z,100962.98
2019-04-27T04:59:29.235Z,100964.78
2019-04-27T05:02:01.871Z,100966.58
2019-04-27T05:04:29.643Z,100962.00
2019-04-27T05:06:59.299Z,100958.06
2019-04-27T05:09:29.559Z,100962.64
2019-04-27T05:11:59.043Z,100954.09
2019-04-27T05:14:28.995Z,100956.91
2019-04-27T05:16:59.241Z,100945.37
2019-04-27T05:19:29.571Z,100946.39
2019-04-27T05:21:59.365Z,100933.84
2019-04-27T05:24:29.370Z,100934.66
2019-04-27T05:26:59.935Z,100943.06
2019-04-27T05:29:29.455Z,100941.23
2019-04-27T05:31:59.199Z,100940.62
2019-04-27T05:34:29.820Z,100940.08
2019-04-27T05:37:01.055Z,100931.53
2019-04-27T05:39:30.200Z,100925.83
2019-04-27T05:41:59.843Z,100929.20
2019-04-27T05:44:50.466Z,100923.26
2019-04-27T05:47:21.382Z,100922.02
2019-04-27T05:49:51.931Z,100914.86
2019-04-27T05:52:30.152Z,100918.41
2019-04-27T05:55:00.958Z,100920.01
2019-04-27T05:57:31.356Z,100916.22
2019-04-27T06:00:02.702Z,100914.38
2019-04-27T06:02:33.121Z,100914.95
2019-04-27T06:05:02.426Z,100919.70
2019-04-27T06:07:31.781Z,100912.47
2019-04-27T06:10:01.115Z,100911.45
2019-04-27T06:12:32.425Z,100912.88
2019-04-27T06:15:02.810Z,100908.05
2019-04-27T06:17:32.079Z,100914.75
2019-04-27T06:20:01.716Z,100911.11
2019-04-27T06:22:32.583Z,100908.48
2019-04-27T06:25:01.889Z,100909.62
2019-04-27T06:27:31.223Z,100902.81
2019-04-27T06:30:00.591Z,100909.62
2019-04-27T06:32:29.872Z,100913.38
2019-04-27T06:34:59.424Z,100911.37
2019-04-27T06:37:29.464Z,100917.88
2019-04-27T06:39:59.801Z,100910.87
2019-04-27T06:42:29.913Z,100909.88
2019-04-27T06:44:59.912Z,100916.18
2019-04-27T06:47:29.713Z,100907.20
2019-04-27T06:49:59.079Z,100911.73
2019-04-27T06:52:29.210Z,100915.97
2019-04-27T06:55:00.480Z,100918.14
2019-04-27T06:57:29.851Z,100920.03
2019-04-27T07:00:00.771Z,100923.96
2019-04-27T07:02:30.137Z,100934.25
2019-04-27T07:04:59.431Z,100946.22
2019-04-27T07:07:29.450Z,100951.20
2019-04-27T07:09:59.320Z,100964.03
2019-04-27T07:12:29.021Z,100932.91
2019-04-27T07:14:59.603Z,100928.03
2019-04-27T07:17:29.562Z,100925.06
2019-04-27T07:19:59.589Z,100920.48
2019-04-27T07:22:29.867Z,100914.64
2019-04-27T07:24:59.481Z,100921.14
2019-04-27T07:27:29.246Z,100931.19
2019-04-27T07:30:00.858Z,100925.20
2019-04-27T07:32:29.721Z,100920.89
2019-04-27T07:34:58.982Z,100922.94
2019-04-27T07:37:29.460Z,100926.42
2019-04-27T07:39:59.944Z,100924.20
2019-04-27T07:42:32.088Z,100932.14
2019-04-27T07:45:03.043Z,100926.31
2019-04-27T07:47:32.507Z,100931.38
2019-04-27T07:50:01.969Z,100933.13
2019-04-27T07:52:31.976Z,100924.79
2019-04-27T07:55:01.333Z,100927.73
2019-04-27T07:57:30.975Z,100925.92
2019-04-27T08:00:00.291Z,100928.39
2019-04-27T08:02:29.778Z,100929.47
2019-04-27T08:04:59.595Z,100932.55
2019-04-27T08:07:30.829Z,100925.78
2019-04-27T08:10:01.717Z,100933.07
2019-04-27T08:12:32.908Z,100922.91
2019-04-27T08:15:02.202Z,100922.95
2019-04-27T08:17:31.923Z,100926.47
2019-04-27T08:20:01.236Z,100932.84
2019-04-27T08:22:31.114Z,100940.98
2019-04-27T08:25:00.427Z,100940.59
2019-04-27T08:27:40.270Z,100940.02
2019-04-27T08:30:19.338Z,100939.20
2019-04-27T08:32:53.619Z,100933.39
2019-04-27T08:35:24.482Z,100942.27
2019-04-27T08:37:53.798Z,100947.79
2019-04-27T08:40:24.682Z,100949.20
2019-04-27T08:42:55.705Z,100957.64
2019-04-27T08:45:25.322Z,100947.22
2019-04-27T08:47:54.714Z,100952.73
2019-04-27T08:50:24.017Z,100955.52
2019-04-27T08:52:53.305Z,100958.77
2019-04-27T08:55:22.590Z,100957.05
2019-04-27T08:57:52.040Z,100945.33
2019-04-27T09:00:21.691Z,100944.23
2019-04-27T09:02:51.032Z,100946.99
2019-04-27T09:05:26.494Z,100947.88
2019-04-27T09:08:14.527Z,100940.55
2019-04-27T09:10:45.474Z,100935.08
2019-04-27T09:13:19.579Z,100927.60
2019-04-27T09:15:51.714Z,100946.15
2019-04-27T09:18:22.635Z,100947.67
2019-04-27T09:20:59.348Z,100943.10
2019-04-27T09:23:28.714Z,100946.23
2019-04-27T09:25:59.552Z,100942.70
2019-04-27T09:28:30.067Z,100946.32
2019-04-27T09:30:59.410Z,100952.92
2019-04-27T09:33:28.675Z,100940.59
2019-04-27T09:35:59.075Z,100941.01
2019-04-27T09:38:29.744Z,100933.94
2019-04-27T09:41:00.757Z,100935.44
2019-04-27T09:43:30.045Z,100930.56
2019-04-27T09:45:59.469Z,100940.55
2019-04-27T09:48:30.244Z,100926.41
2019-04-27T09:50:59.547Z,100945.53
2019-04-27T09:53:28.969Z,100937.19
2019-04-27T09:55:58.400Z,100944.66
2019-04-27T09:58:27.734Z,100949.76
2019-04-27T10:00:57.194Z,100957.96
2019-04-27T10:03:26.751Z,100955.78
2019-04-27T10:05:57.043Z,100960.34
2019-04-27T10:08:26.615Z,100949.75
2019-04-27T10:10:56.664Z,100956.57
2019-04-27T10:13:27.609Z,100945.04
2019-04-27T10:15:58.198Z,100958.56
2019-04-27T10:18:28.612Z,100962.13
2019-04-27T10:21:01.931Z,100958.27
2019-04-27T10:23:28.934Z,100958.62
2019-04-27T10:25:58.236Z,100959.70
2019-04-27T10:28:27.550Z,100946.84
2019-04-27T10:30:56.869Z,100944.43
2019-04-27T10:33:27.491Z,100955.97
2019-04-27T10:35:58.372Z,100940.62
2019-04-27T10:38:27.814Z,100937.91
2019-04-27T10:40:57.204Z,100943.72
2019-04-27T10:43:28.135Z,100941.32
2019-04-27T10:45:57.484Z,100941.38
2019-04-27T10:48:26.821Z,100931.89
2019-04-27T10:50:56.320Z,100931.26
2019-04-27T10:53:26.877Z,100930.93
2019-04-27T10:55:56.740Z,100926.48
2019-04-27T10:58:27.339Z,100936.60
2019-04-27T11:00:59.770Z,100935.20
2019-04-27T11:03:46.909Z,100930.32
2019-04-27T11:06:23.913Z,100992.03
2019-04-27T11:08:53.237Z,100960.03
2019-04-27T11:11:22.540Z,100942.37
2019-04-27T11:13:51.818Z,100937.27
2019-04-27T11:16:21.386Z,100938.26
2019-04-27T11:18:50.685Z,100941.28
2019-04-27T11:21:21.184Z,100939.34
2019-04-27T11:23:50.493Z,100959.35
2019-04-27T11:26:19.824Z,100964.83
2019-04-27T11:28:49.121Z,100965.05
2019-04-27T11:31:20.178Z,100958.25
2019-04-27T11:33:49.877Z,100964.81
2019-04-27T11:36:25.599Z,100959.50
2019-04-27T11:38:56.629Z,100956.08
2019-04-27T11:41:26.302Z,100951.72
2019-04-27T11:43:56.534Z,100968.41
2019-04-27T11:46:26.733Z,100965.10
2019-04-27T11:48:58.169Z,100962.65
2019-04-27T11:51:27.242Z,100963.09
2019-04-27T11:53:58.167Z,100961.12
2019-04-27T11:56:27.554Z,100955.91
2019-04-27T11:58:58.447Z,100958.02
2019-04-27T12:01:29.118Z,100957.59
2019-04-27T12:03:58.440Z,100957.61
2019-04-27T12:06:28.171Z,100979.89
2019-04-27T12:08:57.437Z,100976.32
2019-04-27T12:11:26.867Z,100990.09
2019-04-27T12:13:56.295Z,100985.79
2019-04-27T12:16:26.183Z,100994.64
2019-04-27T12:18:56.392Z,100984.59
2019-04-27T12:21:26.160Z,100990.61
2019-04-27T12:23:55.588Z,100984.84
2019-04-27T12:26:28.113Z,100977.78
2019-04-27T12:28:58.954Z,100986.37
2019-04-27T12:31:29.961Z,100977.56
2019-04-27T12:33:59.278Z,100977.11
2019-04-27T12:36:28.601Z,100985.31
2019-04-27T12:38:57.886Z,100991.76
2019-04-27T12:41:27.444Z,100989.43
2019-04-27T12:43:56.776Z,100998.70
2019-04-27T12:46:26.128Z,100987.47
2019-04-27T12:48:57.225Z,100990.74
2019-04-27T12:51:26.697Z,100994.80
2019-04-27T12:53:57.619Z,101006.83
2019-04-27T12:56:34.249Z,101008.84
2019-04-27T12:59:05.352Z,101012.53
2019-04-27T13:01:36.078Z,101010.33
2019-04-27T13:04:05.608Z,101018.02
2019-04-27T13:06:35.810Z,101008.39
2019-04-27T13:09:07.247Z,101010.95
2019-04-27T13:11:36.712Z,101015.11
2019-04-27T13:14:06.293Z,101007.78
2019-04-27T13:16:35.755Z,101008.23
2019-04-27T13:19:06.160Z,101012.41
2019-04-27T13:21:36.571Z,101010.11
2019-04-27T13:24:06.983Z,101012.80
2019-04-27T13:26:38.192Z,101016.44
2019-04-27T13:29:07.544Z,101012.71
2019-04-27T13:31:38.172Z,101018.94
2019-04-27T13:34:07.450Z,101014.62
2019-04-27T13:36:36.934Z,101007.74
2019-04-27T13:39:06.769Z,101015.63
2019-04-27T13:41:36.345Z,101018.97
2019-04-27T13:44:06.557Z,101010.31
2019-04-27T13:46:55.877Z,101012.00
2019-04-27T13:49:36.371Z,101020.93
2019-04-27T13:52:09.981Z,101010.32
2019-04-27T13:54:39.250Z,101011.29
2019-04-27T13:57:08.551Z,101011.08
2019-04-27T13:59:37.826Z,100999.01
2019-04-27T14:02:07.278Z,101011.29
2019-04-27T14:04:36.551Z,101013.83
2019-04-27T14:07:05.861Z,101015.70
2019-04-27T14:09:35.199Z,101007.09
2019-04-27T14:12:15.361Z,101012.64
2019-04-27T14:14:44.826Z,101009.75
2019-04-27T14:17:14.123Z,101004.30
2019-04-27T14:19:43.396Z,101015.91
2019-04-27T14:22:12.704Z,101002.64
2019-04-27T14:24:42.372Z,101013.92
2019-04-27T14:27:11.830Z,101013.37
2019-04-27T14:29:41.178Z,101012.63
2019-04-27T14:32:10.860Z,101015.78
2019-04-27T14:34:40.163Z,101016.02
2019-04-27T14:37:10.445Z,101023.66
2019-04-27T14:39:39.817Z,101023.58
2019-04-27T14:42:09.154Z,101014.23
2019-04-27T14:44:38.964Z,101014.27
2019-04-27T14:47:08.420Z,101015.50
2019-04-27T14:49:39.057Z,101032.28
2019-04-27T14:52:10.213Z,101020.00
2019-04-27T14:54:47.276Z,101033.13
2019-04-27T14:57:10.634Z,101031.64
2019-04-27T14:59:39.942Z,101029.19
2019-04-27T15:02:09.492Z,101030.63
2019-04-27T15:04:40.214Z,101050.25
2019-04-27T15:07:10.024Z,101067.89
2019-04-27T15:09:39.366Z,101057.83
2019-04-27T15:12:08.640Z,101048.06
2019-04-27T15:14:38.802Z,101045.08
2019-04-27T15:17:10.384Z,101055.98
2019-04-27T15:19:41.041Z,101049.97
2019-04-27T15:22:16.177Z,101051.12
2019-04-27T15:24:47.169Z,101056.16
2019-04-27T15:27:15.869Z,101060.89
2019-04-27T15:29:45.365Z,101069.04
2019-04-27T15:32:22.703Z,101053.87
2019-04-27T15:34:53.625Z,101069.64
2019-04-27T15:37:28.256Z,101066.08
2019-04-27T15:40:10.077Z,101075.00
2019-04-27T15:42:51.985Z,101072.07
2019-04-27T15:45:24.213Z,101085.31
2019-04-27T15:47:54.563Z,101089.94
2019-04-27T15:50:30.318Z,101090.44
2019-04-27T15:52:54.619Z,101086.73
2019-04-27T15:55:32.392Z,101094.13
2019-04-27T15:57:55.060Z,101098.00
2019-04-27T16:00:28.602Z,101099.15
2019-04-27T16:02:57.370Z,101104.56
2019-04-27T16:05:28.622Z,101101.47
2019-04-27T16:07:59.198Z,101099.48
2019-04-27T16:10:32.787Z,101102.22
2019-04-27T16:13:06.363Z,101101.37
2019-04-27T16:15:30.908Z,101100.40
2019-04-27T16:18:00.194Z,101106.34
2019-04-27T16:20:33.782Z,101112.00
2019-04-27T16:23:03.433Z,101119.17
2019-04-27T16:25:45.184Z,101131.78
2019-04-27T16:28:08.766Z,101130.44
2019-04-27T16:30:35.533Z,101130.75
2019-04-27T16:33:05.856Z,101137.61
2019-04-27T16:35:35.392Z,101141.67
2019-04-27T16:38:07.825Z,101139.98
2019-04-27T16:40:38.979Z,101135.16
2019-04-27T16:43:08.986Z,101134.92
2019-04-27T16:45:38.886Z,101137.80
2019-04-27T16:48:09.109Z,101140.38
2019-04-27T16:50:39.090Z,101144.73
2019-04-27T16:53:12.112Z,101144.67
2019-04-27T16:55:39.717Z,101157.38
2019-04-27T16:58:15.719Z,101155.87
2019-04-27T17:00:40.895Z,101155.42
2019-04-27T17:03:12.162Z,101156.98
2019-04-27T17:05:41.679Z,101155.72
2019-04-27T17:08:21.590Z,101151.40
2019-04-27T17:10:42.035Z,101153.62
2019-04-27T17:13:14.632Z,101155.23
2019-04-27T17:15:55.749Z,101157.31
2019-04-27T17:18:35.581Z,101155.41
2019-04-27T17:21:16.138Z,101159.81
2019-04-27T17:23:36.294Z,101170.80
2019-04-27T17:26:20.050Z,101169.98
2019-04-27T17:28:50.938Z,101177.26
2019-04-27T17:31:21.648Z,101173.13
2019-04-27T17:34:02.660Z,101178.95
2019-04-27T17:36:31.963Z,101183.91
2019-04-27T17:39:01.508Z,101181.02
2019-04-27T17:41:32.500Z,101184.63
2019-04-27T17:44:01.813Z,101191.59
2019-04-27T17:46:31.091Z,101194.79
2019-04-27T17:49:00.380Z,101189.83
2019-04-27T17:51:30.974Z,101194.39
2019-04-27T17:54:02.902Z,101191.05
2019-04-27T17:56:35.861Z,101198.00
2019-04-27T17:59:02.856Z,101197.00
2019-04-27T18:01:32.452Z,101197.27
2019-04-27T18:04:02.997Z,101201.20
2019-04-27T18:06:32.643Z,101203.58
2019-04-27T18:09:03.449Z,101214.52
2019-04-27T18:11:37.256Z,101237.02
2019-04-27T18:14:06.548Z,101262.55
2019-04-27T18:16:35.848Z,101260.55
2019-04-27T18:19:25.279Z,101232.31
2019-04-27T18:22:00.838Z,101207.09
2019-04-27T18:24:34.286Z,101209.14
2019-04-27T18:27:21.951Z,101209.92
2019-04-27T18:29:51.356Z,101217.66
2019-04-27T18:32:23.679Z,101224.42
2019-04-27T18:34:51.973Z,101221.62
2019-04-27T18:37:24.735Z,101217.67
2019-04-27T18:39:54.989Z,101221.89
2019-04-27T18:42:28.057Z,101228.03
2019-04-27T18:44:54.786Z,101225.47
2019-04-27T18:47:24.092Z,101231.80
2019-04-27T18:49:55.182Z,101232.01
2019-04-27T18:52:47.314Z,101231.22
2019-04-27T18:55:16.819Z,101237.36
2019-04-27T18:57:46.013Z,101243.52
2019-04-27T19:00:16.710Z,101242.51
2019-04-27T19:02:48.252Z,101256.81
2019-04-27T19:05:18.847Z,101254.60
2019-04-27T19:07:48.604Z,101261.16
2019-04-27T19:10:19.255Z,101258.39
2019-04-27T19:12:48.793Z,101264.73
2019-04-27T19:15:18.550Z,101266.92
2019-04-27T19:17:48.982Z,101273.48
2019-04-27T19:20:18.857Z,101279.64
2019-04-27T19:22:49.032Z,101280.20
2019-04-27T19:25:33.708Z,101285.39
2019-04-27T19:28:04.629Z,101284.61
2019-04-27T19:30:44.650Z,101286.98
2019-04-27T19:33:13.958Z,101294.73
2019-04-27T19:35:43.242Z,101291.37
2019-04-27T19:38:12.627Z,101292.97
2019-04-27T19:40:41.960Z,101297.54
2019-04-27T19:43:11.348Z,101296.55
2019-04-27T19:45:40.624Z,101298.95
2019-04-27T19:48:10.647Z,101299.34
2019-04-27T19:50:40.049Z,101300.12
2019-04-27T19:53:09.750Z,101301.31
2019-04-27T19:55:40.561Z,101296.52
2019-04-27T19:58:10.267Z,101300.91
2019-04-27T20:01:09.692Z,101299.71
2019-04-27T20:03:31.549Z,101300.52
2019-04-27T20:06:01.052Z,101302.09
2019-04-27T20:08:38.840Z,101304.09
2019-04-27T20:11:08.154Z,101308.84
2019-04-27T20:13:37.456Z,101311.61
2019-04-27T20:16:06.809Z,101304.27
2019-04-27T20:18:36.144Z,101302.10
2019-04-27T20:21:05.783Z,101299.91
2019-04-27T20:23:35.067Z,101306.25
2019-04-27T20:26:05.908Z,101303.69
2019-04-27T20:28:38.449Z,101301.69
2019-04-27T20:31:06.511Z,101305.86
2019-04-27T20:33:35.799Z,101306.66
2019-04-27T20:36:05.276Z,101308.64
2019-04-27T20:38:34.724Z,101314.60
2019-04-27T20:41:04.024Z,101315.98
2019-04-27T20:43:33.301Z,101315.39
2019-04-27T20:46:02.733Z,101317.20
2019-04-27T20:48:33.093Z,101317.17
2019-04-27T20:51:02.453Z,101315.58
2019-04-27T20:53:34.633Z,101316.77
2019-04-27T20:56:04.006Z,101315.17
2019-04-27T20:58:34.888Z,101312.39
2019-04-27T21:01:05.040Z,101314.34
2019-04-27T21:03:38.199Z,101319.48
2019-04-27T21:06:11.125Z,101321.05
2019-04-27T21:08:41.426Z,101314.31
2019-04-27T21:11:11.855Z,101317.48
2019-04-27T21:13:41.396Z,101315.49
2019-04-27T21:16:12.448Z,101323.43
2019-04-27T21:18:42.070Z,101316.88
2019-04-27T21:21:11.591Z,101317.09
2019-04-27T21:23:41.547Z,101316.67
2019-04-27T21:26:10.967Z,101325.03
2019-04-27T21:28:42.910Z,101318.69
2019-04-27T21:31:12.773Z,101320.05
2019-04-27T21:33:42.301Z,101322.05
2019-04-27T21:36:11.906Z,101315.52
2019-04-27T21:38:42.921Z,101319.47
2019-04-27T21:41:12.194Z,101315.33
2019-04-27T21:43:42.084Z,101314.73
2019-04-27T21:46:12.467Z,101314.73
2019-04-27T21:48:41.782Z,101311.81
2019-04-27T21:51:11.810Z,101311.40
2019-04-27T21:54:00.330Z,101319.70
2019-04-27T21:56:31.144Z,101315.96
2019-04-27T21:59:01.070Z,101313.60
2019-04-27T22:01:32.154Z,101316.77
2019-04-27T22:04:04.070Z,101321.94
2019-04-27T22:06:33.697Z,101329.27
2019-04-27T22:09:04.707Z,101331.68
2019-04-27T22:11:35.784Z,101328.89
2019-04-27T22:14:06.118Z,101333.27
2019-04-27T22:16:37.291Z,101336.05
2019-04-27T22:19:06.754Z,101330.91
2019-04-27T22:21:37.688Z,101333.48
2019-04-27T22:24:11.456Z,101339.63
2019-04-27T22:26:41.468Z,101337.07
2019-04-27T22:29:12.064Z,101338.86
2019-04-27T22:31:41.775Z,101345.80
2019-04-27T22:34:12.019Z,101344.39
2019-04-27T22:36:41.311Z,101347.56
2019-04-27T22:39:18.283Z,101352.92
2019-04-27T22:41:54.911Z,101353.13
2019-04-27T22:44:37.816Z,101352.94
2019-04-27T22:47:07.166Z,101357.70
2019-04-27T22:49:36.444Z,101358.91
2019-04-27T22:52:05.753Z,101356.31
2019-04-27T22:54:35.701Z,101357.70
2019-04-27T22:57:06.644Z,101359.30
2019-04-27T22:59:37.559Z,101361.69
2019-04-27T23:02:08.495Z,101361.70
2019-04-27T23:04:41.089Z,101366.45
2019-04-27T23:07:11.050Z,101369.63
2019-04-27T23:09:40.741Z,101368.45
2019-04-27T23:12:12.729Z,101372.00
2019-04-27T23:14:41.987Z,101372.79
2019-04-27T23:17:27.967Z,101369.20
2019-04-27T23:19:57.307Z,101373.98
2019-04-27T23:22:26.790Z,101372.58
2019-04-27T23:24:57.172Z,101376.56
2019-04-27T23:27:26.440Z,101369.78
2019-04-27T23:29:55.775Z,101379.53
2019-04-27T23:32:26.710Z,101387.45
2019-04-27T23:34:58.277Z,101393.56
2019-04-27T23:37:27.777Z,101408.34
2019-04-27T23:39:57.201Z,101420.08
2019-04-27T23:42:26.575Z,101426.44
2019-04-27T23:44:55.945Z,101424.78
2019-04-27T23:47:25.326Z,101428.83
2019-04-27T23:49:54.598Z,101424.28
2019-04-27T23:52:41.802Z,101427.66
2019-04-27T23:55:11.135Z,101418.30
2019-04-27T23:57:40.420Z,101415.38
